Milwaukee, Wisconsin
Traffic Map
Current Weather Conditions
Milwaukee, Wisconsin
Broken Clouds
Broken Clouds
58°
Feels Like: 58°
Wind Chill: 58° Ceiling: 25000
Heat Index: 58° Visibility: 10mi
Dew Point: 36° Wind: 10mph
Humidity: 44% Direction: 180° (S)
Pressure: 29.82in Gusts: 0mph
Raw Report DataKMKE 020052Z 18009KT 10SM BKN250 14/02 A2982 RMK AO2 SLP101 T01440022
Traffic Incident Summary
Active as of:
Severity:
Category:
InformationThere was an issue retrieving the traffic information for this location. Please try a different location or try again shortly.
Advertisements
Track Severe Weather on mobile